sensor_id;sensor_type;location;lat;lon;timestamp;P1;durP1;ratioP1;P2;durP2;ratioP2
12451;SDS011;72521;48.924;12.204;2024-02-21T00:04:44;6.07;;;2.72;;
12451;SDS011;72521;48.924;12.204;2024-02-21T00:09:49;5.55;;;2.35;;
12451;SDS011;72521;48.924;12.204;2024-02-21T00:14:53;1.10;;;0.80;;
12451;SDS011;72521;48.924;12.204;2024-02-21T00:19:58;7.20;;;3.42;;
12451;SDS011;72521;48.924;12.204;2024-02-21T00:25:02;6.68;;;3.03;;
12451;SDS011;72521;48.924;12.204;2024-02-21T00:30:07;7.82;;;2.28;;
12451;SDS011;72521;48.924;12.204;2024-02-21T00:35:14;8.32;;;2.30;;
12451;SDS011;72521;48.924;12.204;2024-02-21T00:40:19;6.53;;;2.83;;
12451;SDS011;72521;48.924;12.204;2024-02-21T00:45:24;4.53;;;2.03;;
12451;SDS011;72521;48.924;12.204;2024-02-21T00:50:29;9.65;;;3.03;;
12451;SDS011;72521;48.924;12.204;2024-02-21T00:55:33;9.43;;;2.75;;
12451;SDS011;72521;48.924;12.204;2024-02-21T01:00:37;4.72;;;2.85;;
12451;SDS011;72521;48.924;12.204;2024-02-21T01:05:43;4.82;;;2.13;;
12451;SDS011;72521;48.924;12.204;2024-02-21T01:10:47;3.25;;;1.75;;
12451;SDS011;72521;48.924;12.204;2024-02-21T01:15:52;4.93;;;2.85;;
12451;SDS011;72521;48.924;12.204;2024-02-21T01:20:57;6.90;;;2.25;;
12451;SDS011;72521;48.924;12.204;2024-02-21T01:26:02;6.25;;;2.45;;
12451;SDS011;72521;48.924;12.204;2024-02-21T01:31:10;8.02;;;3.08;;
12451;SDS011;72521;48.924;12.204;2024-02-21T01:36:16;7.55;;;2.53;;
12451;SDS011;72521;48.924;12.204;2024-02-21T01:41:21;6.95;;;2.25;;
12451;SDS011;72521;48.924;12.204;2024-02-21T01:46:26;5.70;;;2.53;;
12451;SDS011;72521;48.924;12.204;2024-02-21T01:51:34;6.75;;;2.83;;
12451;SDS011;72521;48.924;12.204;2024-02-21T01:56:40;6.80;;;2.13;;
12451;SDS011;72521;48.924;12.204;2024-02-21T02:01:44;8.63;;;3.13;;
12451;SDS011;72521;48.924;12.204;2024-02-21T02:06:52;4.40;;;2.53;;
12451;SDS011;72521;48.924;12.204;2024-02-21T02:11:58;9.35;;;3.20;;
12451;SDS011;72521;48.924;12.204;2024-02-21T02:17:03;5.40;;;3.20;;
12451;SDS011;72521;48.924;12.204;2024-02-21T02:22:09;5.07;;;2.03;;
12451;SDS011;72521;48.924;12.204;2024-02-21T02:27:20;6.18;;;1.95;;
12451;SDS011;72521;48.924;12.204;2024-02-21T02:32:24;2.63;;;1.25;;
12451;SDS011;72521;48.924;12.204;2024-02-21T02:37:28;1.40;;;0.88;;
12451;SDS011;72521;48.924;12.204;2024-02-21T02:42:34;3.47;;;1.50;;
12451;SDS011;72521;48.924;12.204;2024-02-21T02:47:39;2.60;;;1.60;;
12451;SDS011;72521;48.924;12.204;2024-02-21T02:52:44;5.22;;;2.30;;
12451;SDS011;72521;48.924;12.204;2024-02-21T02:57:49;1.15;;;0.63;;
12451;SDS011;72521;48.924;12.204;2024-02-21T03:02:53;6.35;;;1.42;;
12451;SDS011;72521;48.924;12.204;2024-02-21T03:07:57;4.93;;;2.22;;
12451;SDS011;72521;48.924;12.204;2024-02-21T03:13:03;0.75;;;0.60;;
12451;SDS011;72521;48.924;12.204;2024-02-21T03:18:07;6.70;;;1.77;;
12451;SDS011;72521;48.924;12.204;2024-02-21T03:23:11;3.80;;;1.33;;
12451;SDS011;72521;48.924;12.204;2024-02-21T03:28:17;4.25;;;1.88;;
12451;SDS011;72521;48.924;12.204;2024-02-21T03:33:21;5.95;;;1.55;;
12451;SDS011;72521;48.924;12.204;2024-02-21T03:38:25;4.60;;;1.58;;
12451;SDS011;72521;48.924;12.204;2024-02-21T03:43:30;3.65;;;1.50;;
12451;SDS011;72521;48.924;12.204;2024-02-21T03:48:35;3.63;;;1.75;;
12451;SDS011;72521;48.924;12.204;2024-02-21T03:53:40;4.28;;;1.65;;
12451;SDS011;72521;48.924;12.204;2024-02-21T03:58:45;7.43;;;2.47;;
12451;SDS011;72521;48.924;12.204;2024-02-21T04:03:49;2.17;;;0.82;;
12451;SDS011;72521;48.924;12.204;2024-02-21T04:08:53;6.35;;;1.88;;
12451;SDS011;72521;48.924;12.204;2024-02-21T04:13:58;10.70;;;2.35;;
12451;SDS011;72521;48.924;12.204;2024-02-21T04:19:03;6.05;;;1.73;;
12451;SDS011;72521;48.924;12.204;2024-02-21T04:24:07;4.10;;;1.98;;
12451;SDS011;72521;48.924;12.204;2024-02-21T04:29:12;6.20;;;2.10;;
12451;SDS011;72521;48.924;12.204;2024-02-21T04:34:16;5.32;;;1.67;;
12451;SDS011;72521;48.924;12.204;2024-02-21T04:39:20;2.55;;;1.80;;
12451;SDS011;72521;48.924;12.204;2024-02-21T04:44:26;7.63;;;2.15;;
12451;SDS011;72521;48.924;12.204;2024-02-21T04:49:30;5.60;;;1.60;;
12451;SDS011;72521;48.924;12.204;2024-02-21T04:54:34;3.97;;;1.85;;
12451;SDS011;72521;48.924;12.204;2024-02-21T04:59:40;5.10;;;1.88;;
12451;SDS011;72521;48.924;12.204;2024-02-21T05:04:44;6.28;;;2.50;;
12451;SDS011;72521;48.924;12.204;2024-02-21T05:09:48;5.22;;;2.00;;
12451;SDS011;72521;48.924;12.204;2024-02-21T05:14:53;5.68;;;2.20;;
12451;SDS011;72521;48.924;12.204;2024-02-21T05:19:57;8.27;;;2.35;;
12451;SDS011;72521;48.924;12.204;2024-02-21T05:25:02;8.10;;;2.58;;
12451;SDS011;72521;48.924;12.204;2024-02-21T05:30:09;7.70;;;2.60;;
12451;SDS011;72521;48.924;12.204;2024-02-21T05:35:14;4.88;;;2.28;;
12451;SDS011;72521;48.924;12.204;2024-02-21T05:40:18;4.80;;;2.47;;
12451;SDS011;72521;48.924;12.204;2024-02-21T05:45:24;4.68;;;2.00;;
12451;SDS011;72521;48.924;12.204;2024-02-21T05:50:28;8.00;;;2.60;;
12451;SDS011;72521;48.924;12.204;2024-02-21T05:55:32;5.57;;;1.88;;
12451;SDS011;72521;48.924;12.204;2024-02-21T06:00:38;9.75;;;4.20;;
12451;SDS011;72521;48.924;12.204;2024-02-21T06:05:42;9.30;;;4.00;;
12451;SDS011;72521;48.924;12.204;2024-02-21T06:10:46;11.18;;;4.07;;
12451;SDS011;72521;48.924;12.204;2024-02-21T06:15:52;8.32;;;3.67;;
12451;SDS011;72521;48.924;12.204;2024-02-21T06:20:56;5.70;;;3.55;;
12451;SDS011;72521;48.924;12.204;2024-02-21T06:26:00;11.30;;;3.97;;
12451;SDS011;72521;48.924;12.204;2024-02-21T06:31:05;10.98;;;5.35;;
12451;SDS011;72521;48.924;12.204;2024-02-21T06:36:09;10.73;;;4.32;;
12451;SDS011;72521;48.924;12.204;2024-02-21T06:41:17;9.10;;;5.15;;
12451;SDS011;72521;48.924;12.204;2024-02-21T06:46:25;8.30;;;3.83;;
12451;SDS011;72521;48.924;12.204;2024-02-21T06:51:31;4.32;;;3.40;;
12451;SDS011;72521;48.924;12.204;2024-02-21T06:56:36;4.40;;;2.50;;
12451;SDS011;72521;48.924;12.204;2024-02-21T07:01:45;5.50;;;2.30;;
12451;SDS011;72521;48.924;12.204;2024-02-21T07:06:50;4.05;;;2.35;;
12451;SDS011;72521;48.924;12.204;2024-02-21T07:11:54;4.82;;;2.10;;
12451;SDS011;72521;48.924;12.204;2024-02-21T07:17:00;4.15;;;2.00;;
12451;SDS011;72521;48.924;12.204;2024-02-21T07:22:03;6.22;;;2.45;;
12451;SDS011;72521;48.924;12.204;2024-02-21T07:27:07;6.60;;;3.20;;
12451;SDS011;72521;48.924;12.204;2024-02-21T07:32:13;10.75;;;3.58;;
12451;SDS011;72521;48.924;12.204;2024-02-21T07:37:17;6.30;;;3.42;;
12451;SDS011;72521;48.924;12.204;2024-02-21T07:42:21;9.05;;;3.85;;
12451;SDS011;72521;48.924;12.204;2024-02-21T07:47:27;10.93;;;3.20;;
12451;SDS011;72521;48.924;12.204;2024-02-21T07:52:30;9.25;;;3.00;;
12451;SDS011;72521;48.924;12.204;2024-02-21T07:57:34;8.07;;;2.95;;
12451;SDS011;72521;48.924;12.204;2024-02-21T08:02:40;6.80;;;3.80;;
12451;SDS011;72521;48.924;12.204;2024-02-21T08:07:45;8.90;;;3.35;;
12451;SDS011;72521;48.924;12.204;2024-02-21T08:12:51;6.00;;;2.53;;
12451;SDS011;72521;48.924;12.204;2024-02-21T08:17:57;7.10;;;2.90;;
12451;SDS011;72521;48.924;12.204;2024-02-21T08:23:03;13.65;;;4.97;;
12451;SDS011;72521;48.924;12.204;2024-02-21T08:28:07;11.48;;;5.22;;
12451;SDS011;72521;48.924;12.204;2024-02-21T08:33:13;8.88;;;2.97;;
12451;SDS011;72521;48.924;12.204;2024-02-21T08:38:18;4.85;;;1.92;;
12451;SDS011;72521;48.924;12.204;2024-02-21T08:43:22;6.10;;;2.47;;
12451;SDS011;72521;48.924;12.204;2024-02-21T08:48:28;3.20;;;1.65;;
12451;SDS011;72521;48.924;12.204;2024-02-21T08:53:32;3.22;;;1.42;;
12451;SDS011;72521;48.924;12.204;2024-02-21T08:58:36;3.92;;;1.90;;
12451;SDS011;72521;48.924;12.204;2024-02-21T09:03:43;4.47;;;1.63;;
12451;SDS011;72521;48.924;12.204;2024-02-21T09:08:48;11.57;;;6.93;;
12451;SDS011;72521;48.924;12.204;2024-02-21T09:13:52;4.82;;;1.88;;
12451;SDS011;72521;48.924;12.204;2024-02-21T09:18:58;5.85;;;1.70;;
12451;SDS011;72521;48.924;12.204;2024-02-21T09:24:03;5.10;;;1.70;;
12451;SDS011;72521;48.924;12.204;2024-02-21T09:29:08;5.55;;;1.83;;
12451;SDS011;72521;48.924;12.204;2024-02-21T09:34:14;6.25;;;1.70;;
12451;SDS011;72521;48.924;12.204;2024-02-21T09:39:18;7.70;;;1.92;;
12451;SDS011;72521;48.924;12.204;2024-02-21T09:44:22;4.85;;;1.67;;
12451;SDS011;72521;48.924;12.204;2024-02-21T09:49:31;1.55;;;0.63;;
12451;SDS011;72521;48.924;12.204;2024-02-21T09:54:36;4.70;;;1.13;;
12451;SDS011;72521;48.924;12.204;2024-02-21T09:59:40;2.10;;;0.80;;
12451;SDS011;72521;48.924;12.204;2024-02-21T10:04:46;4.25;;;1.70;;
12451;SDS011;72521;48.924;12.204;2024-02-21T10:09:50;2.33;;;0.93;;
12451;SDS011;72521;48.924;12.204;2024-02-21T10:15:04;4.50;;;1.50;;
12451;SDS011;72521;48.924;12.204;2024-02-21T10:20:11;5.75;;;1.70;;
12451;SDS011;72521;48.924;12.204;2024-02-21T10:25:16;5.63;;;1.35;;
12451;SDS011;72521;48.924;12.204;2024-02-21T10:30:21;2.78;;;1.08;;
12451;SDS011;72521;48.924;12.204;2024-02-21T10:35:26;3.03;;;1.20;;
12451;SDS011;72521;48.924;12.204;2024-02-21T10:40:32;5.28;;;1.30;;
12451;SDS011;72521;48.924;12.204;2024-02-21T10:45:36;5.32;;;1.42;;
12451;SDS011;72521;48.924;12.204;2024-02-21T10:50:47;4.15;;;1.10;;
12451;SDS011;72521;48.924;12.204;2024-02-21T10:56:06;4.78;;;1.30;;
12451;SDS011;72521;48.924;12.204;2024-02-21T11:01:18;1.77;;;0.63;;
12451;SDS011;72521;48.924;12.204;2024-02-21T11:06:24;2.22;;;1.00;;
12451;SDS011;72521;48.924;12.204;2024-02-21T11:11:33;2.88;;;0.90;;
12451;SDS011;72521;48.924;12.204;2024-02-21T11:16:41;3.90;;;0.98;;
12451;SDS011;72521;48.924;12.204;2024-02-21T11:21:47;5.80;;;1.30;;
12451;SDS011;72521;48.924;12.204;2024-02-21T11:26:51;4.80;;;1.63;;
12451;SDS011;72521;48.924;12.204;2024-02-21T11:31:55;4.00;;;2.03;;
12451;SDS011;72521;48.924;12.204;2024-02-21T11:37:01;3.50;;;1.42;;
12451;SDS011;72521;48.924;12.204;2024-02-21T11:42:15;4.10;;;1.40;;
12451;SDS011;72521;48.924;12.204;2024-02-21T11:47:19;4.30;;;1.40;;
12451;SDS011;72521;48.924;12.204;2024-02-21T11:52:25;4.72;;;1.35;;
12451;SDS011;72521;48.924;12.204;2024-02-21T11:57:30;5.03;;;1.30;;
12451;SDS011;72521;48.924;12.204;2024-02-21T12:02:34;6.32;;;1.25;;
12451;SDS011;72521;48.924;12.204;2024-02-21T12:07:39;2.95;;;0.98;;
12451;SDS011;72521;48.924;12.204;2024-02-21T12:12:44;1.67;;;0.60;;
12451;SDS011;72521;48.924;12.204;2024-02-21T12:17:48;2.53;;;1.05;;
12451;SDS011;72521;48.924;12.204;2024-02-21T12:22:55;2.75;;;1.25;;
12451;SDS011;72521;48.924;12.204;2024-02-21T12:28:00;5.35;;;0.95;;
12451;SDS011;72521;48.924;12.204;2024-02-21T12:33:05;2.60;;;1.13;;
12451;SDS011;72521;48.924;12.204;2024-02-21T12:38:11;4.38;;;1.52;;
12451;SDS011;72521;48.924;12.204;2024-02-21T12:43:15;2.78;;;1.17;;
12451;SDS011;72521;48.924;12.204;2024-02-21T12:48:20;1.92;;;1.10;;
12451;SDS011;72521;48.924;12.204;2024-02-21T12:53:25;3.65;;;1.33;;
12451;SDS011;72521;48.924;12.204;2024-02-21T12:58:34;4.88;;;1.17;;
12451;SDS011;72521;48.924;12.204;2024-02-21T13:03:39;2.72;;;1.15;;
12451;SDS011;72521;48.924;12.204;2024-02-21T13:08:45;5.05;;;1.50;;
12451;SDS011;72521;48.924;12.204;2024-02-21T13:13:48;4.95;;;1.73;;
12451;SDS011;72521;48.924;12.204;2024-02-21T13:18:52;4.22;;;2.00;;
12451;SDS011;72521;48.924;12.204;2024-02-21T13:23:58;2.00;;;1.10;;
12451;SDS011;72521;48.924;12.204;2024-02-21T13:29:02;4.05;;;1.33;;
12451;SDS011;72521;48.924;12.204;2024-02-21T13:34:06;4.47;;;1.30;;
12451;SDS011;72521;48.924;12.204;2024-02-21T13:39:14;2.72;;;1.23;;
12451;SDS011;72521;48.924;12.204;2024-02-21T13:44:20;2.67;;;1.20;;
12451;SDS011;72521;48.924;12.204;2024-02-21T13:49:24;4.40;;;1.20;;
12451;SDS011;72521;48.924;12.204;2024-02-21T13:54:30;3.42;;;1.10;;
12451;SDS011;72521;48.924;12.204;2024-02-21T13:59:34;4.60;;;1.48;;
12451;SDS011;72521;48.924;12.204;2024-02-21T14:04:38;1.35;;;0.85;;
12451;SDS011;72521;48.924;12.204;2024-02-21T14:09:43;2.75;;;1.20;;
12451;SDS011;72521;48.924;12.204;2024-02-21T14:14:47;4.75;;;1.33;;
12451;SDS011;72521;48.924;12.204;2024-02-21T14:19:51;2.80;;;0.95;;
12451;SDS011;72521;48.924;12.204;2024-02-21T14:24:57;3.67;;;2.05;;
12451;SDS011;72521;48.924;12.204;2024-02-21T14:30:01;1.88;;;1.00;;
12451;SDS011;72521;48.924;12.204;2024-02-21T14:35:05;4.35;;;1.25;;
12451;SDS011;72521;48.924;12.204;2024-02-21T14:40:12;5.03;;;1.23;;
12451;SDS011;72521;48.924;12.204;2024-02-21T14:45:16;2.92;;;1.02;;
12451;SDS011;72521;48.924;12.204;2024-02-21T14:50:20;2.67;;;1.13;;
12451;SDS011;72521;48.924;12.204;2024-02-21T14:55:26;0.95;;;0.50;;
12451;SDS011;72521;48.924;12.204;2024-02-21T15:00:30;3.08;;;1.35;;
12451;SDS011;72521;48.924;12.204;2024-02-21T15:05:34;2.35;;;0.95;;
12451;SDS011;72521;48.924;12.204;2024-02-21T15:10:40;1.85;;;0.98;;
12451;SDS011;72521;48.924;12.204;2024-02-21T15:15:44;3.05;;;0.70;;
12451;SDS011;72521;48.924;12.204;2024-02-21T15:20:49;2.15;;;1.48;;
12451;SDS011;72521;48.924;12.204;2024-02-21T15:25:55;0.98;;;0.63;;
12451;SDS011;72521;48.924;12.204;2024-02-21T15:30:59;1.83;;;0.98;;
12451;SDS011;72521;48.924;12.204;2024-02-21T15:36:05;8.45;;;2.88;;
12451;SDS011;72521;48.924;12.204;2024-02-21T15:41:12;4.07;;;1.85;;
12451;SDS011;72521;48.924;12.204;2024-02-21T15:46:16;3.28;;;1.33;;
12451;SDS011;72521;48.924;12.204;2024-02-21T15:51:20;3.00;;;1.20;;
12451;SDS011;72521;48.924;12.204;2024-02-21T15:56:26;2.17;;;1.25;;
12451;SDS011;72521;48.924;12.204;2024-02-21T16:01:30;3.90;;;1.23;;
12451;SDS011;72521;48.924;12.204;2024-02-21T16:06:35;3.45;;;1.73;;
12451;SDS011;72521;48.924;12.204;2024-02-21T16:11:40;2.92;;;1.88;;
12451;SDS011;72521;48.924;12.204;2024-02-21T16:16:44;2.30;;;1.20;;
12451;SDS011;72521;48.924;12.204;2024-02-21T16:21:48;4.53;;;1.70;;
12451;SDS011;72521;48.924;12.204;2024-02-21T16:26:54;3.72;;;1.52;;
12451;SDS011;72521;48.924;12.204;2024-02-21T16:31:58;1.90;;;1.55;;
12451;SDS011;72521;48.924;12.204;2024-02-21T16:37:03;4.53;;;2.42;;
12451;SDS011;72521;48.924;12.204;2024-02-21T16:42:08;3.40;;;2.05;;
12451;SDS011;72521;48.924;12.204;2024-02-21T16:47:12;7.45;;;4.45;;
12451;SDS011;72521;48.924;12.204;2024-02-21T16:52:18;5.95;;;2.85;;
12451;SDS011;72521;48.924;12.204;2024-02-21T16:57:24;4.25;;;3.53;;
12451;SDS011;72521;48.924;12.204;2024-02-21T17:02:28;5.65;;;4.00;;
12451;SDS011;72521;48.924;12.204;2024-02-21T17:07:38;3.80;;;2.72;;
12451;SDS011;72521;48.924;12.204;2024-02-21T17:12:44;4.97;;;2.75;;
12451;SDS011;72521;48.924;12.204;2024-02-21T17:17:48;4.60;;;2.97;;
12451;SDS011;72521;48.924;12.204;2024-02-21T17:22:52;7.65;;;4.45;;
12451;SDS011;72521;48.924;12.204;2024-02-21T17:28:00;7.65;;;4.60;;
12451;SDS011;72521;48.924;12.204;2024-02-21T17:33:05;8.07;;;4.78;;
12451;SDS011;72521;48.924;12.204;2024-02-21T17:38:10;5.85;;;3.88;;
12451;SDS011;72521;48.924;12.204;2024-02-21T17:43:15;5.68;;;2.88;;
12451;SDS011;72521;48.924;12.204;2024-02-21T17:48:19;3.22;;;2.45;;
12451;SDS011;72521;48.924;12.204;2024-02-21T17:53:23;6.30;;;4.50;;
12451;SDS011;72521;48.924;12.204;2024-02-21T17:58:29;7.95;;;5.30;;
12451;SDS011;72521;48.924;12.204;2024-02-21T18:03:34;5.72;;;3.97;;
12451;SDS011;72521;48.924;12.204;2024-02-21T18:08:39;6.65;;;4.03;;
12451;SDS011;72521;48.924;12.204;2024-02-21T18:13:45;6.28;;;4.22;;
12451;SDS011;72521;48.924;12.204;2024-02-21T18:18:49;8.43;;;5.40;;
12451;SDS011;72521;48.924;12.204;2024-02-21T18:23:53;3.42;;;3.13;;
12451;SDS011;72521;48.924;12.204;2024-02-21T18:28:58;5.15;;;3.83;;
12451;SDS011;72521;48.924;12.204;2024-02-21T18:34:04;3.78;;;2.42;;
12451;SDS011;72521;48.924;12.204;2024-02-21T18:39:08;2.70;;;1.90;;
12451;SDS011;72521;48.924;12.204;2024-02-21T18:44:14;3.40;;;1.83;;
12451;SDS011;72521;48.924;12.204;2024-02-21T18:49:20;4.18;;;3.17;;
12451;SDS011;72521;48.924;12.204;2024-02-21T18:54:24;5.20;;;3.00;;
12451;SDS011;72521;48.924;12.204;2024-02-21T18:59:29;5.90;;;3.22;;
12451;SDS011;72521;48.924;12.204;2024-02-21T19:04:33;4.60;;;2.55;;
12451;SDS011;72521;48.924;12.204;2024-02-21T19:09:37;3.08;;;2.28;;
12451;SDS011;72521;48.924;12.204;2024-02-21T19:14:43;8.40;;;4.35;;
12451;SDS011;72521;48.924;12.204;2024-02-21T19:19:48;10.77;;;5.68;;
12451;SDS011;72521;48.924;12.204;2024-02-21T19:24:57;5.15;;;3.58;;
12451;SDS011;72521;48.924;12.204;2024-02-21T19:30:07;7.40;;;4.65;;
12451;SDS011;72521;48.924;12.204;2024-02-21T19:35:12;6.05;;;4.20;;
12451;SDS011;72521;48.924;12.204;2024-02-21T19:40:16;7.38;;;4.97;;
12451;SDS011;72521;48.924;12.204;2024-02-21T19:45:22;7.68;;;5.03;;
12451;SDS011;72521;48.924;12.204;2024-02-21T19:50:26;9.52;;;6.47;;
12451;SDS011;72521;48.924;12.204;2024-02-21T19:55:35;8.15;;;4.70;;
12451;SDS011;72521;48.924;12.204;2024-02-21T20:00:42;6.03;;;4.28;;
12451;SDS011;72521;48.924;12.204;2024-02-21T20:05:46;8.30;;;4.45;;
12451;SDS011;72521;48.924;12.204;2024-02-21T20:10:52;4.40;;;3.08;;
12451;SDS011;72521;48.924;12.204;2024-02-21T20:15:59;3.97;;;3.22;;
12451;SDS011;72521;48.924;12.204;2024-02-21T20:21:03;6.05;;;4.05;;
12451;SDS011;72521;48.924;12.204;2024-02-21T20:26:07;4.20;;;3.08;;
12451;SDS011;72521;48.924;12.204;2024-02-21T20:31:13;4.85;;;3.20;;
12451;SDS011;72521;48.924;12.204;2024-02-21T20:36:21;7.70;;;4.10;;
12451;SDS011;72521;48.924;12.204;2024-02-21T20:41:25;7.13;;;3.65;;
12451;SDS011;72521;48.924;12.204;2024-02-21T20:46:31;7.72;;;5.10;;
12451;SDS011;72521;48.924;12.204;2024-02-21T20:51:35;6.43;;;3.80;;
12451;SDS011;72521;48.924;12.204;2024-02-21T20:56:39;10.80;;;5.80;;
12451;SDS011;72521;48.924;12.204;2024-02-21T21:01:45;10.93;;;5.15;;
12451;SDS011;72521;48.924;12.204;2024-02-21T21:07:03;6.28;;;3.63;;
12451;SDS011;72521;48.924;12.204;2024-02-21T21:12:08;7.07;;;3.70;;
12451;SDS011;72521;48.924;12.204;2024-02-21T21:17:14;7.53;;;3.15;;
12451;SDS011;72521;48.924;12.204;2024-02-21T21:22:19;4.30;;;2.85;;
12451;SDS011;72521;48.924;12.204;2024-02-21T21:27:23;5.20;;;2.70;;
12451;SDS011;72521;48.924;12.204;2024-02-21T21:32:30;5.95;;;3.17;;
12451;SDS011;72521;48.924;12.204;2024-02-21T21:37:34;4.78;;;3.10;;
12451;SDS011;72521;48.924;12.204;2024-02-21T21:42:38;5.20;;;3.50;;
12451;SDS011;72521;48.924;12.204;2024-02-21T21:47:44;5.57;;;3.60;;
12451;SDS011;72521;48.924;12.204;2024-02-21T21:52:49;3.25;;;2.90;;
12451;SDS011;72521;48.924;12.204;2024-02-21T21:57:53;5.47;;;3.40;;
12451;SDS011;72521;48.924;12.204;2024-02-21T22:02:58;7.45;;;4.90;;
12451;SDS011;72521;48.924;12.204;2024-02-21T22:08:02;5.93;;;3.55;;
12451;SDS011;72521;48.924;12.204;2024-02-21T22:13:07;5.13;;;3.53;;
12451;SDS011;72521;48.924;12.204;2024-02-21T22:18:12;5.15;;;3.13;;
12451;SDS011;72521;48.924;12.204;2024-02-21T22:23:17;5.10;;;3.50;;
12451;SDS011;72521;48.924;12.204;2024-02-21T22:28:22;5.47;;;4.00;;
12451;SDS011;72521;48.924;12.204;2024-02-21T22:33:27;9.30;;;3.55;;
12451;SDS011;72521;48.924;12.204;2024-02-21T22:38:31;5.97;;;4.25;;
12451;SDS011;72521;48.924;12.204;2024-02-21T22:43:35;6.75;;;4.32;;
12451;SDS011;72521;48.924;12.204;2024-02-21T22:48:40;4.95;;;3.85;;
12451;SDS011;72521;48.924;12.204;2024-02-21T22:53:45;8.10;;;4.38;;
12451;SDS011;72521;48.924;12.204;2024-02-21T22:58:49;5.85;;;3.70;;
12451;SDS011;72521;48.924;12.204;2024-02-21T23:03:55;6.30;;;3.92;;
12451;SDS011;72521;48.924;12.204;2024-02-21T23:09:19;5.78;;;3.45;;
12451;SDS011;72521;48.924;12.204;2024-02-21T23:14:27;6.47;;;3.25;;
12451;SDS011;72521;48.924;12.204;2024-02-21T23:19:32;5.72;;;3.60;;
12451;SDS011;72521;48.924;12.204;2024-02-21T23:24:36;4.45;;;3.70;;
12451;SDS011;72521;48.924;12.204;2024-02-21T23:29:40;6.88;;;3.85;;
12451;SDS011;72521;48.924;12.204;2024-02-21T23:34:46;7.05;;;4.07;;
12451;SDS011;72521;48.924;12.204;2024-02-21T23:39:52;6.30;;;4.18;;
12451;SDS011;72521;48.924;12.204;2024-02-21T23:44:57;5.30;;;3.60;;
12451;SDS011;72521;48.924;12.204;2024-02-21T23:50:02;5.72;;;3.70;;
12451;SDS011;72521;48.924;12.204;2024-02-21T23:55:08;4.78;;;3.50;;
